Time;durP1;ratioP1;P1;durP2;ratioP2;P2;SDS_P1;SDS_P2;PMS_P1;PMS_P2;Temp;Humidity;BMP_temperature;BMP_pressure;BME280_temperature;BME280_humidity;BME280_pressure;Samples;Min_cycle;Max_cycle;Signal;HPM_P1;HPM_P2
2023/06/21 00:00:53;;;;;;;3.00;1.77;;;;;;;24.08;35.17;100849.19;5044672;28;20044;-81
2023/06/21 00:03:21;;;;;;;3.55;2.10;;;;;;;24.04;35.17;100842.34;5042250;28;20036;-81
2023/06/21 00:05:49;;;;;;;3.20;1.75;;;;;;;24.01;35.19;100839.13;5046549;28;20103;-82
2023/06/21 00:08:17;;;;;;;4.00;1.90;;;;;;;24.00;35.23;100840.22;5057551;28;20056;-81
2023/06/21 00:10:45;;;;;;;2.55;1.70;;;;;;;23.97;35.41;100835.94;5044357;28;20468;-82
2023/06/21 00:13:13;;;;;;;3.13;2.00;;;;;;;23.95;35.42;100843.69;5042084;28;20036;-82
2023/06/21 00:15:42;;;;;;;3.47;1.98;;;;;;;23.96;35.58;100847.34;5062226;28;20040;-82
2023/06/21 00:18:10;;;;;;;3.13;1.75;;;;;;;23.91;35.44;100852.75;5048624;28;20120;-81
2023/06/21 00:20:38;;;;;;;4.13;2.25;;;;;;;23.88;35.52;100850.38;5046001;28;20037;-82
2023/06/21 00:23:07;;;;;;;3.40;2.10;;;;;;;23.85;35.63;100846.09;5063987;28;20041;-82
2023/06/21 00:25:35;;;;;;;3.20;1.85;;;;;;;23.82;35.86;100849.34;5040136;28;20045;-83
2023/06/21 00:28:06;;;;;;;3.28;1.80;;;;;;;23.79;35.78;100846.13;5045840;28;20045;-83
2023/06/21 00:30:34;;;;;;;3.70;2.03;;;;;;;23.77;35.83;100861.19;5046637;28;20044;-82
2023/06/21 00:33:04;;;;;;;2.97;1.80;;;;;;;23.77;35.80;100854.72;5048546;28;20095;-82
2023/06/21 00:35:34;;;;;;;3.47;1.90;;;;;;;23.70;35.89;100854.72;5046950;28;20112;-82
2023/06/21 00:38:05;;;;;;;3.58;1.98;;;;;;;23.69;36.03;100854.94;5042997;28;20565;-82
2023/06/21 00:40:33;;;;;;;2.97;1.98;;;;;;;23.67;36.18;100857.97;5045783;28;20076;-82
2023/06/21 00:43:04;;;;;;;2.85;1.70;;;;;;;23.65;36.13;100853.69;5044851;28;20045;-82
2023/06/21 00:45:38;;;;;;;3.20;1.83;;;;;;;23.63;36.22;100859.50;5039468;28;20471;-82
2023/06/21 00:48:07;;;;;;;3.25;1.90;;;;;;;23.63;36.02;100864.22;5061080;28;20039;-82
2023/06/21 00:50:38;;;;;;;3.03;1.85;;;;;;;23.60;36.52;100875.81;5045943;28;20087;-82
2023/06/21 00:53:06;;;;;;;3.00;2.03;;;;;;;23.56;36.50;100877.34;5046004;28;20052;-83
2023/06/21 00:55:35;;;;;;;3.15;1.90;;;;;;;23.55;35.98;100884.03;5065178;28;20079;-83
2023/06/21 00:58:03;;;;;;;4.18;2.20;;;;;;;23.50;36.28;100879.06;5043298;28;20057;-82
2023/06/21 01:00:31;;;;;;;3.30;2.10;;;;;;;23.50;36.59;100887.44;5045974;28;20526;-82
2023/06/21 01:02:59;;;;;;;3.30;1.90;;;;;;;23.47;36.31;100895.44;5050315;28;20504;-82
2023/06/21 01:05:30;;;;;;;3.53;2.15;;;;;;;23.48;36.71;100898.00;5044687;28;20098;-83
2023/06/21 01:08:05;;;;;;;3.43;1.93;;;;;;;23.46;37.00;100905.75;5046850;28;20492;-82
2023/06/21 01:10:56;;;;;;;3.50;2.10;;;;;;;23.46;36.88;100908.53;5046141;28;20056;-82
2023/06/21 01:13:32;;;;;;;3.47;2.17;;;;;;;23.44;36.93;100904.22;5067037;28;20102;-83
2023/06/21 01:16:07;;;;;;;3.25;1.90;;;;;;;23.43;36.99;100905.31;5069627;28;20474;-82
2023/06/21 01:18:37;;;;;;;3.20;1.92;;;;;;;23.38;36.57;100908.78;5050034;28;20059;-82
2023/06/21 01:21:06;;;;;;;3.50;2.20;;;;;;;23.40;36.49;100909.41;5049695;28;21171;-83
2023/06/21 01:24:01;;;;;;;2.83;1.98;;;;;;;23.37;37.03;100907.91;5083248;28;20074;-83
2023/06/21 01:27:00;;;;;;;3.35;2.20;;;;;;;23.34;37.32;100908.31;5082004;28;20108;-82
2023/06/21 01:29:33;;;;;;;4.25;2.20;;;;;;;23.31;37.14;100917.16;5056096;28;20071;-82
2023/06/21 01:32:03;;;;;;;3.45;2.20;;;;;;;23.29;36.72;100913.72;5049246;28;20056;-83
2023/06/21 01:34:33;;;;;;;4.22;2.30;;;;;;;23.27;37.14;100918.66;5066043;28;20073;-81
2023/06/21 01:37:01;;;;;;;3.90;2.15;;;;;;;23.26;36.95;100921.66;5049851;28;20056;-82
2023/06/21 01:39:29;;;;;;;3.33;2.10;;;;;;;23.23;37.22;100909.00;5048018;28;20059;-82
2023/06/21 01:41:58;;;;;;;3.22;2.00;;;;;;;23.21;37.20;100913.09;5062421;28;20515;-82
2023/06/21 01:44:27;;;;;;;4.28;2.10;;;;;;;23.21;37.32;100913.09;5044727;28;20045;-82
2023/06/21 01:46:59;;;;;;;3.80;2.15;;;;;;;23.21;37.54;100924.25;5065560;28;20116;-82
2023/06/21 01:49:30;;;;;;;3.28;1.92;;;;;;;23.18;37.25;100919.09;5046873;28;20044;-82
2023/06/21 01:51:59;;;;;;;4.05;2.40;;;;;;;23.16;37.06;100913.75;5048780;28;20409;-82
2023/06/21 01:54:28;;;;;;;4.65;2.38;;;;;;;23.16;37.16;100922.13;5058655;28;20045;-82
2023/06/21 01:56:59;;;;;;;5.25;2.35;;;;;;;23.14;37.41;100918.66;5065690;28;20280;-82
2023/06/21 01:59:28;;;;;;;3.47;2.10;;;;;;;23.13;37.34;100907.69;5046423;28;20126;-81
2023/06/21 02:01:59;;;;;;;3.85;2.40;;;;;;;23.12;37.59;100912.41;5056583;28;20061;-82
2023/06/21 02:04:31;;;;;;;4.15;2.60;;;;;;;23.09;37.43;100910.03;5071897;28;20062;-82
2023/06/21 02:07:02;;;;;;;3.90;2.25;;;;;;;23.07;37.68;100917.78;5046576;28;20388;-82
2023/06/21 02:09:31;;;;;;;3.40;2.28;;;;;;;23.07;37.27;100926.16;5046315;28;20515;-81
2023/06/21 02:12:00;;;;;;;3.50;2.10;;;;;;;23.05;37.67;100927.44;5067165;28;20040;-82
2023/06/21 02:14:29;;;;;;;4.13;2.63;;;;;;;23.04;37.54;100929.38;5051522;28;20122;-82
2023/06/21 02:16:58;;;;;;;3.67;2.30;;;;;;;23.03;37.73;100936.91;5047131;28;20330;-82
2023/06/21 02:19:26;;;;;;;3.92;2.50;;;;;;;23.00;37.50;100928.09;5062732;28;20200;-82
2023/06/21 02:21:54;;;;;;;3.88;2.42;;;;;;;22.97;37.86;100925.72;5066402;28;20080;-82
2023/06/21 02:24:22;;;;;;;3.85;2.30;;;;;;;22.97;37.62;100939.69;5059123;28;20037;-82
2023/06/21 02:26:50;;;;;;;3.55;2.28;;;;;;;22.95;37.84;100936.25;5045920;28;20037;-82
2023/06/21 02:29:17;;;;;;;3.80;2.30;;;;;;;22.94;37.78;100942.91;5051808;28;20037;-81
2023/06/21 02:31:45;;;;;;;3.92;2.40;;;;;;;22.91;38.02;100934.97;5051617;28;20123;-82
2023/06/21 02:34:16;;;;;;;3.35;2.20;;;;;;;22.92;37.79;100943.09;5044843;28;20771;-81
2023/06/21 02:36:53;;;;;;;3.78;2.20;;;;;;;22.89;37.91;100951.06;5068993;28;20040;-82
2023/06/21 02:39:22;;;;;;;4.20;2.13;;;;;;;22.86;37.82;100951.47;5065047;28;20131;-82
2023/06/21 02:41:50;;;;;;;4.80;2.80;;;;;;;22.84;37.94;100956.41;5069253;28;20057;-82
2023/06/21 02:44:19;;;;;;;3.80;2.50;;;;;;;22.84;37.77;100961.97;5051649;28;20044;-81
2023/06/21 02:46:47;;;;;;;5.13;2.60;;;;;;;22.81;37.99;100957.72;5049454;28;20084;-81
2023/06/21 02:49:17;;;;;;;4.07;2.90;;;;;;;22.81;38.07;100968.88;5047486;28;20063;-81
2023/06/21 02:51:49;;;;;;;3.50;2.40;;;;;;;22.81;38.17;100960.50;5044255;28;20048;-82
2023/06/21 02:54:17;;;;;;;;;;;;;;;22.47;38.49;100969.84;5056929;28;20112;-82
2023/06/21 02:56:45;;;;;;;3.90;2.30;;;;;;;22.70;38.08;100963.91;5052610;28;20027;-81
2023/06/21 02:59:13;;;;;;;4.95;2.63;;;;;;;22.72;38.05;100963.69;5046153;28;20064;-81
2023/06/21 03:01:41;;;;;;;3.50;2.42;;;;;;;22.71;38.08;100961.97;5065408;28;20134;-82
2023/06/21 03:04:09;;;;;;;4.97;2.67;;;;;;;22.69;38.18;100958.53;5069385;28;20052;-81
2023/06/21 03:06:38;;;;;;;3.85;2.50;;;;;;;22.69;38.13;100958.53;5053767;28;20113;-81
2023/06/21 03:09:06;;;;;;;3.80;2.40;;;;;;;22.65;38.35;100958.13;5051542;28;20041;-80
2023/06/21 03:11:34;;;;;;;4.38;2.75;;;;;;;22.64;38.30;100961.97;5059367;28;20067;-81
2023/06/21 03:14:02;;;;;;;4.88;2.95;;;;;;;22.62;38.63;100970.53;5069908;28;20047;-81
2023/06/21 03:16:31;;;;;;;4.30;2.78;;;;;;;22.61;38.44;100976.31;5051237;28;20033;-81
2023/06/21 03:18:59;;;;;;;4.57;2.50;;;;;;;22.59;38.54;100964.56;5044830;28;20127;-80
2023/06/21 03:21:28;;;;;;;3.67;2.55;;;;;;;22.58;38.45;100974.84;5051786;28;20098;-81
2023/06/21 03:23:57;;;;;;;6.00;2.90;;;;;;;22.59;38.45;100973.75;5045958;28;20098;-80
2023/06/21 03:26:25;;;;;;;4.30;2.60;;;;;;;22.57;38.40;100987.06;5051418;28;20064;-81
2023/06/21 03:28:57;;;;;;;4.35;2.97;;;;;;;22.57;38.56;100986.22;5043479;28;20044;-81
2023/06/21 03:31:25;;;;;;;4.50;3.15;;;;;;;22.55;38.45;100991.13;5038902;28;20056;-81
2023/06/21 03:33:53;;;;;;;4.00;2.63;;;;;;;22.54;38.35;100993.06;5065166;28;20045;-80
2023/06/21 03:36:22;;;;;;;3.70;2.67;;;;;;;22.53;38.54;100999.69;5054554;28;20033;-81
2023/06/21 03:38:50;;;;;;;4.30;2.80;;;;;;;22.51;38.60;100987.00;5054522;28;20095;-81
2023/06/21 03:41:19;;;;;;;4.30;2.72;;;;;;;22.52;38.54;100997.94;5061331;28;20049;-81
2023/06/21 03:43:47;;;;;;;3.67;2.75;;;;;;;22.49;38.90;101005.88;5048630;28;20151;-81
2023/06/21 03:46:15;;;;;;;4.22;2.65;;;;;;;22.49;38.88;101003.09;5049544;28;20421;-81
2023/06/21 03:48:43;;;;;;;4.72;2.85;;;;;;;22.49;38.81;101014.25;5050425;28;20048;-81
2023/06/21 03:51:11;;;;;;;4.63;2.92;;;;;;;22.48;38.93;101013.41;5051804;28;20140;-81
2023/06/21 03:53:39;;;;;;;4.95;2.95;;;;;;;22.48;39.02;101024.56;5050464;28;20383;-80
2023/06/21 03:56:07;;;;;;;5.35;3.35;;;;;;;22.46;38.97;101023.88;5044725;28;20432;-80
2023/06/21 03:58:36;;;;;;;4.28;3.05;;;;;;;22.49;39.14;101014.25;5055272;28;20131;-80
2023/06/21 04:01:04;;;;;;;4.15;2.80;;;;;;;22.47;39.12;101017.25;5049477;28;20111;-81
2023/06/21 04:03:32;;;;;;;4.22;2.90;;;;;;;22.47;39.17;101022.81;5048462;28;20033;-81
2023/06/21 04:06:00;;;;;;;4.65;3.00;;;;;;;22.45;39.20;101024.94;5072915;28;20059;-81
2023/06/21 04:08:28;;;;;;;4.50;2.72;;;;;;;22.47;38.95;101021.97;5051894;28;20090;-81
2023/06/21 04:10:58;;;;;;;4.00;2.83;;;;;;;22.46;39.05;101021.09;5047873;28;20515;-81
2023/06/21 04:13:26;;;;;;;5.18;3.08;;;;;;;22.45;39.30;101013.78;5049993;28;20403;-80
2023/06/21 04:15:56;;;;;;;4.63;3.10;;;;;;;22.48;39.22;101027.34;5049404;28;20115;-80
2023/06/21 04:18:24;;;;;;;4.00;2.70;;;;;;;22.48;39.43;101034.84;5045778;28;20041;-81
2023/06/21 04:20:52;;;;;;;4.15;2.85;;;;;;;22.48;39.17;101035.72;5044978;28;20064;-82
2023/06/21 04:23:21;;;;;;;4.47;3.20;;;;;;;22.48;39.25;101024.56;5050175;28;20045;-81
2023/06/21 04:25:49;;;;;;;4.30;3.22;;;;;;;22.49;39.24;101028.19;5051645;28;20052;-81
2023/06/21 04:28:17;;;;;;;5.70;3.08;;;;;;;22.50;39.51;101030.78;5051740;28;20041;-81
2023/06/21 04:30:45;;;;;;;5.75;2.90;;;;;;;22.51;39.38;101040.84;5066571;28;20044;-81
2023/06/21 04:33:14;;;;;;;5.22;3.42;;;;;;;22.56;39.55;101038.34;5054455;28;20041;-76
2023/06/21 04:35:42;;;;;;;4.65;3.45;;;;;;;22.54;39.49;101039.63;5049112;28;20053;-76
2023/06/21 04:38:11;;;;;;;5.30;3.53;;;;;;;22.55;39.60;101053.34;5038663;28;20044;-77
2023/06/21 04:40:40;;;;;;;5.22;3.22;;;;;;;22.55;39.39;101050.56;5043556;28;20054;-77
2023/06/21 04:43:08;;;;;;;4.85;3.30;;;;;;;22.55;39.67;101047.78;5040305;28;20044;-77
2023/06/21 04:45:36;;;;;;;5.55;3.50;;;;;;;22.56;39.42;101046.72;5061912;28;20053;-78
2023/06/21 04:48:05;;;;;;;4.53;3.25;;;;;;;22.56;39.79;101051.44;5066449;28;20047;-77
2023/06/21 04:50:34;;;;;;;4.57;3.20;;;;;;;22.59;39.58;101060.22;5060329;28;20049;-76
2023/06/21 04:53:04;;;;;;;5.45;3.38;;;;;;;22.58;39.51;101052.09;5048741;28;20216;-77
2023/06/21 04:55:32;;;;;;;4.53;3.22;;;;;;;22.61;39.86;101052.50;5053895;28;20135;-77
2023/06/21 04:58:02;;;;;;;5.07;3.33;;;;;;;22.64;39.62;101051.25;5066018;28;20044;-77
2023/06/21 05:00:30;;;;;;;5.55;3.47;;;;;;;22.65;39.69;101047.38;5071576;28;20127;-76
2023/06/21 05:02:58;;;;;;;6.03;4.00;;;;;;;22.68;39.83;101058.09;5048769;28;20049;-76
2023/06/21 05:05:26;;;;;;;4.85;3.58;;;;;;;22.72;40.01;101052.97;5056858;28;20040;-77
2023/06/21 05:07:55;;;;;;;5.35;3.55;;;;;;;22.77;39.54;101056.84;5050689;28;20049;-76
2023/06/21 05:10:23;;;;;;;5.00;3.47;;;;;;;22.82;40.02;101068.25;5056020;28;20043;-77
2023/06/21 05:12:51;;;;;;;5.00;3.83;;;;;;;22.91;40.01;101066.16;5049203;28;20051;-77
2023/06/21 05:15:19;;;;;;;5.70;3.75;;;;;;;23.03;40.00;101065.31;5064737;28;20036;-77
2023/06/21 05:17:47;;;;;;;7.20;4.32;;;;;;;23.17;39.71;101066.22;5072903;28;20068;-79
2023/06/21 05:20:15;;;;;;;6.10;3.90;;;;;;;23.34;39.61;101070.31;5068210;28;20304;-80
2023/06/21 05:22:43;;;;;;;5.13;3.92;;;;;;;23.47;39.18;101072.28;5057720;28;20048;-77
2023/06/21 05:25:13;;;;;;;5.70;4.07;;;;;;;23.67;38.79;101070.31;5064526;28;20098;-80
2023/06/21 05:27:40;;;;;;;6.03;3.92;;;;;;;23.79;38.86;101081.75;5065795;28;20044;-79
2023/06/21 05:30:09;;;;;;;6.78;3.90;;;;;;;23.95;38.68;101086.03;5075877;28;20047;-78
2023/06/21 05:32:37;;;;;;;4.85;3.67;;;;;;;24.07;38.31;101089.91;5051841;28;20052;-76
2023/06/21 05:35:05;;;;;;;6.55;4.32;;;;;;;24.18;38.02;101094.81;5044966;28;20134;-76
2023/06/21 05:37:33;;;;;;;5.78;4.35;;;;;;;24.29;37.77;101096.06;5065310;28;20049;-77
2023/06/21 05:40:02;;;;;;;5.47;3.83;;;;;;;24.38;37.72;101090.06;5061458;28;20066;-76
2023/06/21 05:42:32;;;;;;;5.45;4.38;;;;;;;24.46;37.41;101097.34;5047057;28;20045;-77
2023/06/21 05:45:00;;;;;;;5.07;4.00;;;;;;;24.46;37.39;101097.34;5050314;28;20044;-77
2023/06/21 05:47:28;;;;;;;5.90;4.43;;;;;;;24.48;37.40;101095.19;5047131;28;20069;-77
2023/06/21 05:49:56;;;;;;;7.05;4.18;;;;;;;24.48;37.36;101093.22;5046600;28;20094;-77
2023/06/21 05:52:23;;;;;;;7.20;4.38;;;;;;;24.49;37.24;101103.34;5043471;28;20083;-77
2023/06/21 05:54:51;;;;;;;6.10;3.88;;;;;;;24.51;37.28;101104.00;5062404;28;20127;-77
2023/06/21 05:57:19;;;;;;;6.95;4.25;;;;;;;24.56;37.30;101117.34;5045728;28;20044;-77
2023/06/21 05:59:48;;;;;;;6.10;4.13;;;;;;;24.61;37.25;101108.25;5068838;28;20037;-77
2023/06/21 06:02:16;;;;;;;8.70;4.03;;;;;;;24.63;37.29;101117.31;5043260;28;20080;-76
2023/06/21 06:04:44;;;;;;;5.43;3.92;;;;;;;24.66;36.99;101114.91;5041584;28;20037;-77
2023/06/21 06:07:13;;;;;;;7.78;4.50;;;;;;;24.67;37.17;101116.63;5059397;28;20079;-76
2023/06/21 06:09:41;;;;;;;6.07;4.28;;;;;;;24.70;36.97;101121.78;5056758;28;20044;-76
2023/06/21 06:12:09;;;;;;;5.60;4.07;;;;;;;24.71;36.89;101122.66;5047748;28;20098;-77
2023/06/21 06:14:37;;;;;;;6.50;4.22;;;;;;;24.71;36.91;101131.06;5066110;28;20411;-76
2023/06/21 06:17:06;;;;;;;6.50;4.88;;;;;;;24.71;36.84;101142.25;5066282;28;20467;-77
2023/06/21 06:19:34;;;;;;;7.53;4.15;;;;;;;24.65;36.86;101138.38;5041895;28;20948;-77
2023/06/21 06:22:02;;;;;;;5.72;4.18;;;;;;;24.61;36.85;101141.84;5047611;28;20053;-77
2023/06/21 06:24:30;;;;;;;5.75;4.10;;;;;;;24.56;36.75;101142.53;5068692;28;20055;-77
2023/06/21 06:26:59;;;;;;;6.30;4.82;;;;;;;24.51;37.04;101137.56;5047928;28;20436;-78
2023/06/21 06:29:27;;;;;;;6.45;4.65;;;;;;;24.46;36.87;101144.91;5065218;28;20049;-76
2023/06/21 06:31:54;;;;;;;5.63;4.47;;;;;;;24.40;37.03;101141.03;5052073;28;20061;-78
2023/06/21 06:34:25;;;;;;;5.60;4.30;;;;;;;24.40;37.42;101155.03;5047842;28;20044;-77
2023/06/21 06:36:53;;;;;;;5.35;4.15;;;;;;;24.36;37.67;101155.69;5048125;28;20250;-78
2023/06/21 06:39:39;;;;;;;7.10;4.63;;;;;;;24.36;37.85;101156.56;5075954;28;20041;-78
2023/06/21 06:42:09;;;;;;;8.07;4.20;;;;;;;24.42;37.94;101160.41;5072326;28;20145;-78
2023/06/21 06:44:38;;;;;;;6.47;4.35;;;;;;;24.49;37.92;101161.25;5055528;28;20086;-77
2023/06/21 06:47:07;;;;;;;6.05;4.63;;;;;;;24.57;37.81;101168.56;5071403;28;20127;-77
2023/06/21 06:49:36;;;;;;;6.18;4.35;;;;;;;24.65;37.62;101165.53;5068499;28;20052;-77
2023/06/21 06:52:05;;;;;;;7.47;5.32;;;;;;;24.71;37.64;101164.63;5071414;28;20044;-77
2023/06/21 06:54:33;;;;;;;7.65;4.32;;;;;;;24.76;37.63;101165.69;5051218;28;20086;-77
2023/06/21 06:57:01;;;;;;;6.28;4.78;;;;;;;24.82;37.47;101170.41;5050263;28;20048;-77
2023/06/21 06:59:29;;;;;;;6.07;4.75;;;;;;;24.87;37.54;101169.75;5053969;28;20045;-77
2023/06/21 07:01:57;;;;;;;7.10;4.88;;;;;;;24.92;37.62;101180.25;5065969;28;20041;-77
2023/06/21 07:04:25;;;;;;;6.00;4.70;;;;;;;24.97;37.46;101183.31;5045674;28;20040;-77
2023/06/21 07:06:57;;;;;;;6.07;4.82;;;;;;;25.03;37.43;101186.09;5047029;28;20464;-78
2023/06/21 07:09:25;;;;;;;6.07;4.30;;;;;;;25.07;37.42;101184.53;5064083;28;20047;-77
2023/06/21 07:11:56;;;;;;;5.45;4.40;;;;;;;25.15;37.27;101180.63;5060275;28;20071;-77
2023/06/21 07:14:24;;;;;;;6.13;4.63;;;;;;;25.21;37.56;101183.41;5065144;28;20040;-77
2023/06/21 07:16:52;;;;;;;7.20;5.07;;;;;;;25.28;37.10;101188.97;5068021;28;20605;-77
2023/06/21 07:19:20;;;;;;;6.05;4.43;;;;;;;25.32;37.06;101181.81;5041392;28;20040;-76
2023/06/21 07:21:49;;;;;;;6.43;4.22;;;;;;;25.37;36.92;101182.03;5067108;28;20745;-77
2023/06/21 07:24:19;;;;;;;5.82;4.50;;;;;;;25.44;36.95;101182.84;5067840;28;20094;-77
2023/06/21 07:26:46;;;;;;;6.47;4.53;;;;;;;25.46;37.00;101186.28;5060827;28;20044;-78
2023/06/21 07:29:14;;;;;;;6.47;4.72;;;;;;;25.49;36.84;101179.34;5066723;28;20043;-77
2023/06/21 07:31:42;;;;;;;7.22;4.50;;;;;;;25.53;36.84;101192.75;5052792;28;20045;-77
2023/06/21 07:34:10;;;;;;;6.68;4.68;;;;;;;25.55;36.49;101190.56;5038871;28;20045;-77
2023/06/21 07:36:39;;;;;;;7.45;4.28;;;;;;;25.57;36.55;101185.59;5065029;28;20045;-76
2023/06/21 07:39:09;;;;;;;5.68;4.20;;;;;;;25.60;36.78;101187.09;5049946;28;20040;-77
2023/06/21 07:41:38;;;;;;;7.65;4.65;;;;;;;25.64;36.58;101203.22;5059380;28;20406;-78
2023/06/21 07:44:06;;;;;;;8.90;4.75;;;;;;;25.63;36.66;101204.31;5062896;28;20620;-77
2023/06/21 07:46:34;;;;;;;6.13;4.40;;;;;;;25.65;36.89;101201.28;5039069;28;20044;-77
2023/06/21 07:49:02;;;;;;;5.10;4.10;;;;;;;25.65;36.55;101204.06;5064546;28;20044;-76
2023/06/21 07:51:30;;;;;;;5.18;4.25;;;;;;;25.65;36.60;101195.66;5045773;28;20080;-77
2023/06/21 08:06:04;;;;;;;6.25;4.28;;;;;;;25.62;37.09;101211.00;4954157;28;20145;-81
2023/06/21 08:08:32;;;;;;;5.22;4.18;;;;;;;25.71;37.09;101202.34;5030221;28;20052;-79
2023/06/21 08:11:00;;;;;;;5.05;4.25;;;;;;;25.78;36.75;101201.19;5050211;28;20048;-80
2023/06/21 08:13:29;;;;;;;5.55;4.15;;;;;;;25.88;36.85;101204.38;5057714;28;20319;-80
2023/06/21 08:15:57;;;;;;;6.03;4.43;;;;;;;25.98;36.62;101215.03;5055435;28;20499;-79
2023/06/21 08:18:25;;;;;;;6.00;4.30;;;;;;;26.08;36.30;101209.81;5053846;28;20091;-79
2023/06/21 08:20:53;;;;;;;5.18;4.43;;;;;;;26.17;36.27;101205.66;5052061;28;20056;-80
2023/06/21 08:23:22;;;;;;;6.18;4.50;;;;;;;26.26;35.65;101207.09;5065477;28;20036;-79
2023/06/21 08:25:50;;;;;;;5.47;4.80;;;;;;;26.29;35.80;101206.63;5052480;28;20052;-79
2023/06/21 08:28:18;;;;;;;6.38;5.10;;;;;;;26.34;35.75;101208.72;5056063;28;20041;-80
2023/06/21 08:30:46;;;;;;;6.15;4.40;;;;;;;26.38;35.72;101205.22;5059292;28;20044;-80
2023/06/21 08:33:14;;;;;;;6.38;4.22;;;;;;;26.44;35.55;101208.22;5075782;28;20045;-79
2023/06/21 08:35:42;;;;;;;5.20;4.43;;;;;;;26.52;35.63;101205.97;5053525;28;20052;-80
2023/06/21 08:38:10;;;;;;;6.00;4.45;;;;;;;26.57;35.90;101200.50;5068784;28;20079;-80
2023/06/21 08:40:59;;;;;;;5.75;4.32;;;;;;;26.65;35.40;101200.22;5057894;28;20131;-79
2023/06/21 08:43:29;;;;;;;6.20;4.78;;;;;;;26.70;35.71;101205.16;5050801;28;20197;-80
2023/06/21 08:45:57;;;;;;;6.85;4.93;;;;;;;26.76;35.31;101207.03;5075484;28;20091;-81
2023/06/21 08:48:29;;;;;;;5.95;4.70;;;;;;;26.84;35.06;101203.91;5076547;28;20053;-79
2023/06/21 08:50:59;;;;;;;5.95;4.97;;;;;;;26.88;34.82;101216.38;5049401;28;20082;-80
2023/06/21 08:53:40;;;;;;;5.15;4.65;;;;;;;26.95;34.24;101210.72;5054389;28;20340;-79
2023/06/21 08:56:13;;;;;;;5.30;4.50;;;;;;;26.97;34.81;101203.75;5073003;28;20491;-79
2023/06/21 08:58:46;;;;;;;7.03;5.18;;;;;;;27.03;34.61;101205.63;5069285;28;20047;-79
2023/06/21 09:01:20;;;;;;;7.70;4.88;;;;;;;27.08;34.71;101214.19;5071668;28;20463;-80
2023/06/21 09:03:57;;;;;;;6.57;4.75;;;;;;;27.14;34.17;101218.88;5046552;28;20095;-78
2023/06/21 09:06:28;;;;;;;5.85;4.50;;;;;;;27.20;34.46;101213.44;5070080;28;20397;-79
2023/06/21 09:08:57;;;;;;;6.03;4.90;;;;;;;27.23;34.29;101212.97;5055753;28;20135;-79
2023/06/21 09:11:26;;;;;;;6.05;5.07;;;;;;;27.33;34.04;101211.31;5052050;28;20071;-79
2023/06/21 09:13:55;;;;;;;5.90;4.57;;;;;;;27.38;34.22;101216.22;5055002;28;20045;-79
2023/06/21 09:16:24;;;;;;;6.22;4.47;;;;;;;27.45;33.44;101215.03;5069161;28;20128;-80
2023/06/21 09:18:52;;;;;;;6.20;4.47;;;;;;;27.50;33.40;101223.63;5077593;28;20143;-79
2023/06/21 09:21:21;;;;;;;6.70;5.10;;;;;;;27.57;33.21;101225.47;5076514;28;20040;-80
2023/06/21 09:23:49;;;;;;;5.55;4.57;;;;;;;27.63;33.05;101225.38;5085729;28;20068;-79
2023/06/21 09:26:17;;;;;;;5.65;4.97;;;;;;;27.70;33.66;101223.34;5064285;28;20147;-80
2023/06/21 09:28:46;;;;;;;5.65;4.28;;;;;;;27.81;33.15;101222.53;5077731;28;20745;-80
2023/06/21 09:31:14;;;;;;;5.43;4.40;;;;;;;27.89;32.95;101221.31;5060079;28;20079;-80
2023/06/21 09:33:45;;;;;;;5.70;4.32;;;;;;;28.00;32.65;101217.69;5057281;28;20045;-80
2023/06/21 09:36:14;;;;;;;5.32;4.50;;;;;;;28.08;32.96;101217.34;5074691;28;20064;-81
2023/06/21 09:38:42;;;;;;;5.30;4.20;;;;;;;28.18;31.99;101216.75;5054203;28;20058;-80
2023/06/21 09:41:12;;;;;;;5.47;4.25;;;;;;;28.31;32.21;101215.69;5054275;28;20320;-81
2023/06/21 09:43:44;;;;;;;5.35;4.30;;;;;;;28.39;31.49;101212.50;5071680;28;20033;-81
2023/06/21 09:46:14;;;;;;;6.05;4.20;;;;;;;28.50;31.97;101218.16;5076767;28;20136;-81
2023/06/21 09:48:42;;;;;;;5.10;4.40;;;;;;;28.55;31.81;101209.81;5074493;28;20044;-81
2023/06/21 09:51:14;;;;;;;7.18;5.00;;;;;;;28.67;31.78;101217.41;5066239;28;20058;-81
2023/06/21 09:53:43;;;;;;;7.85;4.97;;;;;;;28.75;31.37;101228.31;5073527;28;20647;-81
2023/06/21 09:56:14;;;;;;;5.80;4.68;;;;;;;28.83;31.15;101242.03;5071451;28;20052;-81
2023/06/21 09:58:43;;;;;;;6.43;5.03;;;;;;;28.87;30.93;101243.25;5053532;28;20482;-81
2023/06/21 10:01:16;;;;;;;6.90;4.80;;;;;;;28.94;30.62;101239.19;5060002;28;20104;-82
2023/06/21 10:03:46;;;;;;;5.53;4.40;;;;;;;28.97;31.10;101249.13;5071201;28;20105;-80
2023/06/21 10:06:17;;;;;;;5.80;4.35;;;;;;;29.03;30.83;101244.44;5078528;28;20082;-81
2023/06/21 10:08:51;;;;;;;5.20;4.70;;;;;;;29.13;30.75;101248.34;5064820;28;20587;-80
2023/06/21 10:11:21;;;;;;;5.50;4.40;;;;;;;29.21;30.37;101259.22;5061237;28;20053;-81
2023/06/21 10:13:49;;;;;;;5.38;4.45;;;;;;;29.25;30.11;101263.31;5079552;28;20049;-80
2023/06/21 10:16:20;;;;;;;5.38;4.45;;;;;;;29.34;29.74;101256.16;5055812;28;20049;-80
2023/06/21 10:18:48;;;;;;;5.65;4.18;;;;;;;29.38;29.87;101252.84;5068506;28;20074;-82
2023/06/21 10:21:20;;;;;;;5.30;4.22;;;;;;;29.47;29.94;101252.22;5051289;28;20479;-80
2023/06/21 10:23:50;;;;;;;;;;;;;;;29.23;30.96;101256.16;5078181;28;20079;-81
2023/06/21 10:26:20;;;;;;;5.28;4.10;;;;;;;29.59;29.63;101271.91;5053232;28;19920;-80
2023/06/21 10:28:56;;;;;;;5.20;4.55;;;;;;;29.72;29.51;101261.19;5051034;28;20044;-80
2023/06/21 10:31:30;;;;;;;4.57;4.00;;;;;;;29.77;28.74;101262.41;5075062;28;20048;-80
2023/06/21 10:33:59;;;;;;;4.72;3.85;;;;;;;29.79;28.63;101263.00;5055359;28;20059;-79
2023/06/21 10:36:33;;;;;;;5.85;4.25;;;;;;;29.85;28.45;101276.09;5070423;28;20048;-80
2023/06/21 10:39:08;;;;;;;5.90;4.38;;;;;;;29.86;28.37;101275.84;5055076;28;20045;-80
2023/06/21 10:41:37;;;;;;;7.45;4.93;;;;;;;29.85;28.55;101278.94;5070504;28;20242;-80
2023/06/21 10:44:06;;;;;;;5.45;4.93;;;;;;;29.84;28.45;101272.41;5049679;28;20051;-80
2023/06/21 10:46:39;;;;;;;4.93;4.32;;;;;;;29.85;28.00;101279.78;5074606;28;20052;-80
2023/06/21 10:49:07;;;;;;;6.45;5.05;;;;;;;29.84;28.45;101277.25;5052440;28;20083;-80
2023/06/21 10:51:36;;;;;;;5.68;4.55;;;;;;;29.84;28.89;101280.88;5072562;28;20040;-80
2023/06/21 10:54:06;;;;;;;6.07;4.88;;;;;;;29.83;28.52;101276.38;5051082;28;20458;-80
2023/06/21 10:56:35;;;;;;;5.25;4.75;;;;;;;29.82;28.43;101271.84;5068268;28;20063;-81
2023/06/21 10:59:03;;;;;;;5.10;4.25;;;;;;;29.82;28.34;101277.50;5075219;28;20106;-81
2023/06/21 11:01:31;;;;;;;6.35;4.60;;;;;;;29.84;28.34;101283.72;5059254;28;20048;-81
2023/06/21 11:04:00;;;;;;;5.93;4.47;;;;;;;29.86;28.30;101284.31;5072089;28;20044;-81
2023/06/21 11:06:30;;;;;;;5.00;4.18;;;;;;;29.86;28.65;101283.47;5054348;28;20064;-81
2023/06/21 11:09:10;;;;;;;5.00;4.18;;;;;;;29.87;28.17;101273.91;5074158;28;20051;-80
2023/06/21 11:11:40;;;;;;;5.22;4.22;;;;;;;29.89;28.11;101280.16;5071043;28;20068;-79
2023/06/21 11:14:08;;;;;;;5.40;4.03;;;;;;;29.92;28.57;101280.47;5056055;28;20045;-80
2023/06/21 11:16:39;;;;;;;4.85;4.13;;;;;;;29.98;28.64;101285.13;5055914;28;20060;-81
2023/06/21 11:19:10;;;;;;;5.63;3.80;;;;;;;30.02;28.56;101285.47;5053701;28;20109;-78
2023/06/21 11:21:45;;;;;;;5.45;4.05;;;;;;;30.07;27.89;101283.63;5058003;28;20967;-77
2023/06/21 11:24:16;;;;;;;4.45;3.60;;;;;;;30.16;28.30;101283.19;5064988;28;20087;-78
2023/06/21 11:27:00;;;;;;;4.85;3.60;;;;;;;30.19;27.55;101283.53;5059343;28;20059;-77
2023/06/21 11:29:40;;;;;;;5.35;4.10;;;;;;;30.25;26.85;101290.19;5052755;28;20105;-79
2023/06/21 11:32:10;;;;;;;5.65;4.00;;;;;;;30.25;27.70;101285.34;5053796;28;20072;-80
2023/06/21 11:34:51;;;;;;;4.80;4.22;;;;;;;30.29;26.71;101294.19;5055492;28;20057;-80
2023/06/21 11:37:36;;;;;;;4.28;3.50;;;;;;;30.28;26.86;101301.78;5056395;28;20051;-79
2023/06/21 11:40:06;;;;;;;4.90;3.72;;;;;;;30.28;27.38;101298.13;5075779;28;20113;-78
2023/06/21 11:42:35;;;;;;;4.35;3.55;;;;;;;30.31;26.75;101294.78;5068026;28;20075;-78
2023/06/21 11:45:20;;;;;;;4.18;3.50;;;;;;;30.32;26.69;101300.19;5050763;28;20603;-79
2023/06/21 11:48:05;;;;;;;4.38;3.53;;;;;;;30.34;26.79;101297.94;5071411;28;20518;-80
2023/06/21 11:50:36;;;;;;;4.85;3.97;;;;;;;30.35;26.92;101304.44;5071149;28;20052;-79